Time;durP1;ratioP1;P1;durP2;ratioP2;P2;SDS_P1;SDS_P2;PMS_P1;PMS_P2;Temp;Humidity;BMP_temperature;BMP_pressure;BME280_temperature;BME280_humidity;BME280_pressure;Samples;Min_cycle;Max_cycle;Signal;HPM_P1;HPM_P2
2023/04/30 00:02:28;;;;;;;;;;;;;;;30.82;72.78;100777.72;5122805;27;70220;-44
2023/04/30 00:04:59;;;;;;;;;;;;;;;30.87;72.75;100788.72;5123129;27;65723;-42
2023/04/30 00:07:29;;;;;;;;;;;;;;;30.92;73.02;100797.84;5120925;27;71060;-40
2023/04/30 00:09:59;;;;;;;;;;;;;;;30.98;73.06;100795.28;5121750;27;66371;-41
2023/04/30 00:12:29;;;;;;;;;;;;;;;31.00;72.98;100796.72;5120420;27;69279;-42
2023/04/30 00:15:00;;;;;;;;;;;;;;;31.05;72.30;100807.72;5123604;27;65849;-41
2023/04/30 00:17:31;;;;;;;;;;;;;;;31.04;71.70;100803.34;5124258;27;70005;-42
2023/04/30 00:20:02;;;;;;;;;;;;;;;31.03;71.53;100804.38;5116698;27;66625;-42
2023/04/30 00:22:32;;;;;;;;;;;;;;;31.02;72.02;100810.88;5125378;27;70206;-41
2023/04/30 00:25:03;;;;;;;;;;;;;;;31.03;72.09;100809.81;5122651;27;66001;-42
2023/04/30 00:27:33;;;;;;;;;;;;;;;31.04;71.99;100811.47;5136201;27;70157;-44
2023/04/30 00:30:05;;;;;;;;;;;;;;;31.05;71.92;100815.00;5094751;27;66481;-43
2023/04/30 00:32:36;;;;;;;;;;;;;;;30.65;71.70;100742.25;5117625;27;70401;-42
2023/04/30 00:35:06;;;;;;;;;;;;;;;31.06;69.34;100814.78;5113368;27;66602;-42
2023/04/30 00:37:37;;;;;;;;;;;;;;;31.11;68.81;100812.22;5134073;27;71276;-42
2023/04/30 00:40:07;;;;;;;;;;;;;;;31.15;67.98;100813.47;5093127;27;66737;-41
2023/04/30 00:42:38;;;;;;;;;;;;;;;31.21;67.24;100811.72;5127454;27;69709;-42
2023/04/30 00:45:08;;;;;;;;;;;;;;;31.26;66.80;100816.47;5098083;27;65907;-43
2023/04/30 00:47:38;;;;;;;;;;;;;;;31.30;66.86;100804.94;5122692;27;69147;-41
2023/04/30 00:50:09;;;;;;;;;;;;;;;31.35;67.09;100807.00;5130358;27;67057;-42
2023/04/30 00:52:39;;;;;;;;;;;;;;;31.51;71.02;100809.16;5116821;27;70311;-39
2023/04/30 00:55:10;;;;;;;;;;;;;;;31.56;70.85;100797.59;5126582;27;66627;-42
2023/04/30 00:57:41;;;;;;;;;;;;;;;31.58;71.27;100812.59;5098847;27;69963;-40
2023/04/30 01:00:12;;;;;;;;;;;;;;;31.57;71.51;100804.69;5131502;27;66920;-41
2023/04/30 01:02:46;;;;;;;;;;;;;;;31.48;69.63;100800.63;5113962;27;63412;-40
2023/04/30 01:05:17;;;;;;;;;;;;;;;31.51;69.18;100806.44;5135961;27;66807;-40
2023/04/30 01:07:48;;;;;;;;;;;;;;;31.52;67.82;100818.91;5105167;27;69156;-40
2023/04/30 01:10:20;;;;;;;;;;;;;;;31.54;67.08;100816.81;5091483;27;66074;-40
2023/04/30 01:13:03;;;;;;;;;;;;;;;31.58;66.92;100818.00;5121553;27;70060;-39
2023/04/30 01:15:37;;;;;;;;;;;;;;;31.24;66.64;100753.56;5086150;27;64463;-39
2023/04/30 01:18:08;;;;;;;;;;;;;;;31.66;66.32;100824.19;5121569;27;69902;-41
2023/04/30 01:20:43;;;;;;;;;;;;;;;31.70;65.99;100819.97;5111233;27;66709;-40
2023/04/30 01:23:24;;;;;;;;;;;;;;;31.73;65.52;100835.78;5101509;27;70497;-40
2023/04/30 01:26:12;;;;;;;;;;;;;;;31.77;65.46;100834.28;5082853;27;66113;-39
2023/04/30 01:28:45;;;;;;;;;;;;;;;31.79;65.08;100840.31;5118894;27;69888;-40
2023/04/30 01:31:17;;;;;;;;;;;;;;;31.82;64.93;100835.25;5108600;27;66380;-40
2023/04/30 01:33:48;;;;;;;;;;;;;;;31.85;65.13;100839.41;5102426;27;68733;-39
2023/04/30 01:36:21;;;;;;;;;;;;;;;31.88;64.81;100832.69;5123437;27;66253;-40
2023/04/30 01:39:09;;;;;;;;;;;;;;;31.91;64.99;100832.22;5126551;27;70302;-39
2023/04/30 01:41:51;;;;;;;;;;;;;;;31.92;64.65;100828.47;5103850;27;66610;-39
2023/04/30 01:44:27;;;;;;;;;;;;;;;31.97;64.41;100837.59;5123141;27;69983;-40
2023/04/30 01:47:04;;;;;;;;;;;;;;;31.99;64.33;100845.50;5120456;27;66436;-40
2023/04/30 01:49:53;;;;;;;;;;;;;;;32.03;64.16;100835.84;5100210;27;70246;-38
2023/04/30 01:52:26;;;;;;;;;;;;;;;32.05;64.20;100840.00;5123347;27;65986;-38
2023/04/30 01:55:00;;;;;;;;;;;;;;;32.09;63.88;100844.94;5120838;27;70548;-41
2023/04/30 01:57:45;;;;;;;;;;;;;;;32.12;63.98;100841.78;5124212;27;66681;-39
2023/04/30 02:00:16;;;;;;;;;;;;;;;32.13;63.86;100843.44;5105074;27;70674;-40
2023/04/30 02:02:47;;;;;;;;;;;;;;;32.18;63.82;100846.28;5133612;27;67062;-40
2023/04/30 02:05:17;;;;;;;;;;;;;;;32.19;63.55;100846.06;5124320;27;70794;-39
2023/04/30 02:07:49;;;;;;;;;;;;;;;32.24;63.56;100853.53;5118982;27;66805;-38
2023/04/30 02:10:25;;;;;;;;;;;;;;;32.26;63.45;100857.66;5123013;27;70071;-39
2023/04/30 02:12:55;;;;;;;;;;;;;;;32.30;63.56;100858.03;5113897;27;66708;-41
2023/04/30 02:15:27;;;;;;;;;;;;;;;32.33;63.28;100859.44;5114129;27;70059;-40
2023/04/30 02:17:57;;;;;;;;;;;;;;;32.35;63.22;100849.19;5109214;27;65493;-39
2023/04/30 02:20:27;;;;;;;;;;;;;;;32.37;63.38;100858.75;5110181;27;69504;-39
2023/04/30 02:22:58;;;;;;;;;;;;;;;32.40;63.08;100860.16;5113017;27;66097;-39
2023/04/30 02:25:29;;;;;;;;;;;;;;;32.42;63.10;100856.16;5126377;27;69804;-39
2023/04/30 02:27:59;;;;;;;;;;;;;;;32.44;62.84;100862.19;5099433;27;65120;-41
2023/04/30 02:30:30;;;;;;;;;;;;;;;32.49;62.84;100862.38;5130599;27;70571;-39
2023/04/30 02:33:02;;;;;;;;;;;;;;;32.52;62.85;100857.53;5111030;27;66770;-39
2023/04/30 02:35:32;;;;;;;;;;;;;;;32.54;62.42;100858.13;5125468;27;69510;-39
2023/04/30 02:38:02;;;;;;;;;;;;;;;32.57;62.46;100860.38;5127095;27;66666;-39
2023/04/30 02:40:33;;;;;;;;;;;;;;;32.60;62.26;100851.78;5134474;27;69895;-41
2023/04/30 02:43:05;;;;;;;;;;;;;;;32.61;62.26;100850.72;5116154;27;66292;-40
2023/04/30 02:45:35;;;;;;;;;;;;;;;32.64;62.31;100852.94;5134167;27;70240;-40
2023/04/30 02:48:06;;;;;;;;;;;;;;;32.66;61.99;100848.94;5135544;27;66295;-39
2023/04/30 02:50:37;;;;;;;;;;;;;;;32.68;61.96;100844.13;5135837;27;69235;-40
2023/04/30 02:53:07;;;;;;;;;;;;;;;32.71;61.83;100837.38;5134856;27;65114;-42
2023/04/30 02:55:38;;;;;;;;;;;;;;;32.71;61.66;100838.22;5136154;27;70089;-40
2023/04/30 02:58:09;;;;;;;;;;;;;;;32.76;61.85;100845.63;5131691;27;65614;-39
2023/04/30 03:00:40;;;;;;;;;;;;;;;32.77;61.71;100839.16;5135514;27;70258;-40
2023/04/30 03:03:11;;;;;;;;;;;;;;;32.81;61.75;100843.06;5109028;27;66494;-41
2023/04/30 03:05:41;;;;;;;;;;;;;;;32.83;61.67;100832.78;5116764;27;70397;-40
2023/04/30 03:08:11;;;;;;;;;;;;;;;32.84;61.37;100837.16;5127613;27;66930;-40
2023/04/30 03:10:42;;;;;;;;;;;;;;;32.86;61.24;100843.19;5109462;27;69032;-40
2023/04/30 03:13:12;;;;;;;;;;;;;;;32.87;61.23;100842.09;5123826;27;66438;-40
2023/04/30 03:15:42;;;;;;;;;;;;;;;32.88;61.05;100838.34;5106346;27;69774;-41
2023/04/30 03:18:13;;;;;;;;;;;;;;;32.91;61.00;100853.34;5111524;27;65787;-40
2023/04/30 03:20:44;;;;;;;;;;;;;;;32.90;60.53;100846.25;5102134;27;70792;-39
2023/04/30 03:23:14;;;;;;;;;;;;;;;32.93;60.66;100837.63;5133529;27;66420;-39
2023/04/30 03:25:44;;;;;;;;;;;;;;;32.96;60.58;100849.91;5092661;27;69012;-41
2023/04/30 03:28:15;;;;;;;;;;;;;;;32.98;60.35;100842.38;5119358;27;66803;-39
2023/04/30 03:30:46;;;;;;;;;;;;;;;32.99;60.21;100847.56;5123178;27;70203;-40
2023/04/30 03:33:16;;;;;;;;;;;;;;;33.00;60.03;100851.97;5128349;27;66195;-40
2023/04/30 03:35:48;;;;;;;;;;;;;;;32.99;59.94;100842.13;5106046;27;70236;-39
2023/04/30 03:38:18;;;;;;;;;;;;;;;33.04;59.91;100846.88;5104463;27;66105;-41
2023/04/30 03:40:48;;;;;;;;;;;;;;;33.04;59.89;100846.88;5122043;27;70388;-39
2023/04/30 03:43:19;;;;;;;;;;;;;;;33.05;59.76;100837.69;5127859;27;65788;-40
2023/04/30 03:45:51;;;;;;;;;;;;;;;33.07;59.70;100830.09;5107857;27;70227;-39
2023/04/30 03:48:21;;;;;;;;;;;;;;;32.87;59.69;100797.81;5124965;27;66779;-39
2023/04/30 03:50:51;;;;;;;;;;;;;;;33.14;59.06;100830.81;5087955;27;69817;-39
2023/04/30 03:53:22;;;;;;;;;;;;;;;33.17;58.10;100833.06;5131963;27;66906;-40
2023/04/30 03:55:53;;;;;;;;;;;;;;;33.20;57.42;100827.16;5131657;27;70195;-41
2023/04/30 03:58:23;;;;;;;;;;;;;;;33.21;57.39;100822.53;5116888;27;66714;-38
2023/04/30 04:00:54;;;;;;;;;;;;;;;33.26;57.56;100811.78;5116704;27;70964;-40
2023/04/30 04:03:24;;;;;;;;;;;;;;;33.27;57.63;100819.69;5081968;27;66897;-40
2023/04/30 04:05:54;;;;;;;;;;;;;;;33.28;57.56;100810.47;5107862;27;70099;-40
2023/04/30 04:08:25;;;;;;;;;;;;;;;33.29;58.01;100803.13;5121309;27;66396;-41
2023/04/30 04:10:55;;;;;;;;;;;;;;;33.29;57.79;100795.84;5122876;27;70280;-39
2023/04/30 04:13:25;;;;;;;;;;;;;;;33.30;57.66;100786.59;5092926;27;65283;-40
2023/04/30 04:15:55;;;;;;;;;;;;;;;33.30;57.73;100783.06;5104947;27;69706;-40
2023/04/30 04:18:26;;;;;;;;;;;;;;;33.32;57.57;100789.91;5107846;27;66261;-41
2023/04/30 04:20:56;;;;;;;;;;;;;;;33.33;57.40;100780.69;5127750;27;70377;-40
2023/04/30 04:23:26;;;;;;;;;;;;;;;33.33;57.45;100777.97;5123802;27;66673;-39
2023/04/30 04:25:57;;;;;;;;;;;;;;;33.35;57.22;100767.69;5113839;27;70509;-40
2023/04/30 04:28:27;;;;;;;;;;;;;;;33.36;57.42;100763.88;5123737;27;66015;-39
2023/04/30 04:30:58;;;;;;;;;;;;;;;33.39;57.16;100757.16;5123083;27;69727;-40
2023/04/30 04:33:29;;;;;;;;;;;;;;;33.41;57.18;100754.19;5110096;27;66766;-39
2023/04/30 04:36:00;;;;;;;;;;;;;;;33.42;57.16;100747.69;5102909;27;70004;-38
2023/04/30 04:38:30;;;;;;;;;;;;;;;33.44;57.09;100748.28;5107934;27;64308;-39
2023/04/30 04:41:01;;;;;;;;;;;;;;;33.46;57.00;100746.13;5104381;27;69282;-39
2023/04/30 04:43:32;;;;;;;;;;;;;;;33.48;57.02;100738.56;5104967;27;65949;-40
2023/04/30 04:46:03;;;;;;;;;;;;;;;33.50;57.05;100736.44;5106704;27;70684;-39
2023/04/30 04:48:33;;;;;;;;;;;;;;;33.51;56.66;100733.44;5129755;27;66859;-39
2023/04/30 04:51:03;;;;;;;;;;;;;;;33.54;56.84;100726.72;5106234;27;70253;-40
2023/04/30 04:53:33;;;;;;;;;;;;;;;33.54;56.73;100722.16;5107376;27;65817;-41
2023/04/30 04:56:04;;;;;;;;;;;;;;;33.57;56.60;100716.22;5111049;27;70306;-39
2023/04/30 04:58:35;;;;;;;;;;;;;;;33.59;56.32;100713.25;5098543;27;66531;-40
2023/04/30 05:01:05;;;;;;;;;;;;;;;33.60;56.56;100704.03;5094960;27;70002;-40
2023/04/30 05:03:38;;;;;;;;;;;;;;;33.61;56.47;100693.97;5101575;27;66327;-40
2023/04/30 05:06:09;;;;;;;;;;;;;;;33.63;56.11;100700.81;5100314;27;70634;-39
2023/04/30 05:08:39;;;;;;;;;;;;;;;33.66;56.38;100700.34;5094508;27;66096;-39
2023/04/30 05:11:09;;;;;;;;;;;;;;;33.72;56.47;100695.81;5113085;27;69326;-41
2023/04/30 05:13:43;;;;;;;;;;;;;;;33.77;56.15;100693.19;5098818;27;66830;-40
2023/04/30 05:16:13;;;;;;;;;;;;;;;33.84;56.10;100687.56;5130136;27;69754;-41
2023/04/30 05:18:43;;;;;;;;;;;;;;;33.85;55.95;100676.47;5111827;27;66341;-41
2023/04/30 05:21:14;;;;;;;;;;;;;;;33.93;55.92;100672.50;5129950;27;70650;-40
2023/04/30 05:23:44;;;;;;;;;;;;;;;33.97;56.01;100668.22;5113217;27;67087;-40
2023/04/30 05:26:14;;;;;;;;;;;;;;;33.97;55.78;100662.78;5097020;27;69571;-40
2023/04/30 05:28:45;;;;;;;;;;;;;;;33.97;55.66;100650.00;5113516;27;66757;-40
2023/04/30 05:31:15;;;;;;;;;;;;;;;33.98;55.72;100651.63;5111162;27;70383;-42
2023/04/30 05:33:48;;;;;;;;;;;;;;;34.00;55.58;100651.41;5134408;27;65480;-40
2023/04/30 05:36:18;;;;;;;;;;;;;;;34.02;55.39;100641.09;5129204;27;69498;-42
2023/04/30 05:38:48;;;;;;;;;;;;;;;34.04;55.23;100630.75;5131888;27;66255;-41
2023/04/30 05:41:20;;;;;;;;;;;;;;;34.06;54.66;100625.94;5115006;27;69476;-40
2023/04/30 05:43:50;;;;;;;;;;;;;;;34.08;54.77;100629.25;5130047;27;66038;-40
2023/04/30 05:46:20;;;;;;;;;;;;;;;34.10;54.47;100627.09;5121324;27;69729;-40
2023/04/30 05:48:51;;;;;;;;;;;;;;;34.13;54.68;100615.72;5116823;27;66000;-40
2023/04/30 05:51:21;;;;;;;;;;;;;;;34.16;54.29;100609.78;5123848;27;70606;-41
2023/04/30 05:53:51;;;;;;;;;;;;;;;34.19;54.20;100609.28;5110256;27;66052;-43
2023/04/30 05:56:23;;;;;;;;;;;;;;;34.21;54.06;100601.69;5109562;27;69337;-39
2023/04/30 05:58:54;;;;;;;;;;;;;;;34.24;54.10;100587.56;5125075;27;65594;-41
2023/04/30 06:01:24;;;;;;;;;;;;;;;34.26;53.73;100571.78;5107703;27;70614;-39
2023/04/30 06:03:54;;;;;;;;;;;;;;;34.30;53.63;100565.84;5115140;27;65776;-40
2023/04/30 06:06:25;;;;;;;;;;;;;;;34.32;53.30;100558.25;5133140;27;70362;-40
2023/04/30 06:08:55;;;;;;;;;;;;;;;34.35;53.68;100552.28;5097817;27;65232;-41
2023/04/30 06:11:26;;;;;;;;;;;;;;;34.37;52.97;100539.25;5137503;27;70609;-40
2023/04/30 06:13:56;;;;;;;;;;;;;;;34.39;52.80;100532.50;5116967;27;66672;-41
2023/04/30 06:16:26;;;;;;;;;;;;;;;34.43;53.11;100532.81;5111914;27;69574;-39
2023/04/30 06:18:56;;;;;;;;;;;;;;;34.45;52.66;100530.66;5126691;27;66673;-41
2023/04/30 06:21:27;;;;;;;;;;;;;;;34.49;52.12;100531.78;5120024;27;70341;-42
2023/04/30 06:23:57;;;;;;;;;;;;;;;34.52;52.26;100520.41;5131023;27;66731;-40
2023/04/30 06:26:27;;;;;;;;;;;;;;;34.55;51.78;100511.72;5113705;27;70403;-40
2023/04/30 06:28:57;;;;;;;;;;;;;;;34.59;51.71;100503.88;5127759;27;66288;-40
2023/04/30 06:31:29;;;;;;;;;;;;;;;34.61;51.68;100491.66;5125684;27;70076;-40
2023/04/30 06:33:59;;;;;;;;;;;;;;;34.65;51.92;100492.78;5112640;27;66273;-40
2023/04/30 06:36:30;;;;;;;;;;;;;;;34.69;51.82;100483.03;5117628;27;68970;-39
2023/04/30 06:39:00;;;;;;;;;;;;;;;34.72;50.90;100478.97;5110616;27;67143;-39
2023/04/30 06:41:30;;;;;;;;;;;;;;;34.77;50.88;100472.75;5097278;27;70063;-39
2023/04/30 06:44:10;;;;;;;;;;;;;;;34.79;50.64;100468.69;5105513;27;67726;-40
2023/04/30 06:46:41;;;;;;;;;;;;;;;34.83;50.78;100467.09;5120903;27;70313;-41
2023/04/30 06:49:11;;;;;;;;;;;;;;;34.87;50.98;100457.31;5104429;27;66487;-42
2023/04/30 06:51:42;;;;;;;;;;;;;;;34.90;50.10;100456.00;5128698;27;69807;-40
2023/04/30 06:54:13;;;;;;;;;;;;;;;34.95;50.50;100436.16;5107101;27;65190;-41
2023/04/30 06:56:43;;;;;;;;;;;;;;;34.99;50.39;100431.81;5111281;27;69078;-40
2023/04/30 06:59:14;;;;;;;;;;;;;;;35.03;49.71;100428.31;5120267;27;66185;-40
2023/04/30 07:01:44;;;;;;;;;;;;;;;35.06;50.11;100419.66;5133721;27;69373;-40
2023/04/30 07:04:15;;;;;;;;;;;;;;;35.12;49.86;100417.78;5104134;27;66502;-42
2023/04/30 07:06:45;;;;;;;;;;;;;;;35.17;49.32;100411.56;5129398;27;70207;-39
2023/04/30 07:09:15;;;;;;;;;;;;;;;35.20;49.60;100413.75;5120039;27;65382;-40
2023/04/30 07:11:46;;;;;;;;;;;;;;;35.22;49.09;100412.41;5129539;27;70286;-43
2023/04/30 07:14:16;;;;;;;;;;;;;;;35.25;49.39;100408.34;5122194;27;66004;-39
2023/04/30 07:16:48;;;;;;;;;;;;;;;35.27;48.58;100396.09;5134507;27;69890;-40
2023/04/30 07:19:19;;;;;;;;;;;;;;;35.31;48.99;100391.75;5106867;27;66552;-41
2023/04/30 07:21:49;;;;;;;;;;;;;;;35.34;48.89;100384.97;5095208;27;70183;-39
2023/04/30 07:24:20;;;;;;;;;;;;;;;35.37;48.37;100384.44;5124853;27;66351;-42
2023/04/30 07:26:50;;;;;;;;;;;;;;;35.39;48.52;100382.25;5120957;27;70164;-40
2023/04/30 07:29:21;;;;;;;;;;;;;;;35.44;48.39;100378.72;5101606;27;66587;-42
2023/04/30 07:31:51;;;;;;;;;;;;;;;35.47;48.40;100389.94;5119187;27;69447;-41
2023/04/30 07:34:22;;;;;;;;;;;;;;;35.50;47.69;100392.16;5124990;27;66887;-42
2023/04/30 07:36:53;;;;;;;;;;;;;;;35.51;48.10;100396.50;5107606;27;69732;-40
2023/04/30 07:39:23;;;;;;;;;;;;;;;35.56;48.12;100396.56;5106155;27;66631;-39
2023/04/30 07:41:54;;;;;;;;;;;;;;;35.57;47.64;100392.75;5121913;27;69783;-42
2023/04/30 07:44:24;;;;;;;;;;;;;;;35.59;48.15;100381.59;5106779;27;65687;-41
2023/04/30 07:46:55;;;;;;;;;;;;;;;35.63;47.90;100381.88;5090563;27;69645;-44
2023/04/30 07:49:25;;;;;;;;;;;;;;;35.65;48.04;100379.72;5104524;27;65514;-40
2023/04/30 07:51:56;;;;;;;;;;;;;;;35.68;47.73;100390.91;5126636;27;70397;-40
2023/04/30 07:54:27;;;;;;;;;;;;;;;35.71;48.05;100395.00;5103639;27;66327;-42
2023/04/30 07:56:57;;;;;;;;;;;;;;;35.72;47.54;100393.94;5107440;27;70540;-39
2023/04/30 07:59:28;;;;;;;;;;;;;;;35.74;48.13;100410.84;5122905;27;66403;-41
2023/04/30 08:01:58;;;;;;;;;;;;;;;35.74;47.63;100410.84;5128631;27;70762;-41
2023/04/30 08:04:29;;;;;;;;;;;;;;;35.77;48.27;100419.34;5123879;27;66904;-41
2023/04/30 08:07:01;;;;;;;;;;;;;;;35.78;48.11;100401.06;5127052;27;69248;-41
2023/04/30 08:09:31;;;;;;;;;;;;;;;35.81;47.83;100406.00;5120643;27;65620;-41
2023/04/30 08:12:03;;;;;;;;;;;;;;;35.80;47.68;100407.06;5106400;27;69946;-40
2023/04/30 08:14:33;;;;;;;;;;;;;;;35.80;44.47;100407.06;5120855;27;66764;-40
2023/04/30 08:17:04;;;;;;;;;;;;;;;35.81;43.28;100408.72;5108017;27;69887;-42
2023/04/30 08:19:34;;;;;;;;;;;;;;;35.81;43.96;100411.44;5125595;27;66269;-41
2023/04/30 08:22:04;;;;;;;;;;;;;;;35.81;44.59;100416.91;5125001;27;70216;-40
2023/04/30 08:24:35;;;;;;;;;;;;;;;35.80;44.42;100416.09;5122043;27;66655;-41
2023/04/30 08:27:05;;;;;;;;;;;;;;;35.80;44.68;100415.25;5121227;27;69194;-41
2023/04/30 08:29:35;;;;;;;;;;;;;;;35.83;45.19;100403.81;5126659;27;66030;-39
2023/04/30 08:32:05;;;;;;;;;;;;;;;35.83;44.75;100395.63;5120586;27;69940;-39
2023/04/30 08:34:39;;;;;;;;;;;;;;;35.85;45.07;100396.16;5123554;27;66075;-40
2023/04/30 08:37:09;;;;;;;;;;;;;;;35.83;45.83;100392.91;5123892;27;69425;-40
2023/04/30 08:39:39;;;;;;;;;;;;;;;35.84;45.89;100391.81;5125770;27;65949;-39
2023/04/30 08:42:13;;;;;;;;;;;;;;;35.85;45.46;100385.25;5123358;27;70594;-41
2023/04/30 08:44:45;;;;;;;;;;;;;;;35.85;46.65;100385.25;5125756;27;65801;-40
2023/04/30 08:47:16;;;;;;;;;;;;;;;35.71;48.15;100378.66;5120998;27;70416;-39
2023/04/30 08:49:47;;;;;;;;;;;;;;;35.61;49.51;100373.13;5122109;27;65362;-40
2023/04/30 08:52:19;;;;;;;;;;;;;;;35.66;49.42;100384.06;5101230;27;69258;-41
2023/04/30 08:54:49;;;;;;;;;;;;;;;35.59;50.13;100365.22;5126083;27;66006;-42
2023/04/30 08:57:20;;;;;;;;;;;;;;;35.55;50.41;100359.47;5103530;27;69338;-41
2023/04/30 08:59:50;;;;;;;;;;;;;;;35.49;50.89;100363.22;5120214;27;66782;-39
2023/04/30 09:02:21;;;;;;;;;;;;;;;35.63;49.27;100370.97;5102214;27;70350;-41
2023/04/30 09:04:51;;;;;;;;;;;;;;;35.66;49.22;100381.34;5121805;27;66838;-41
2023/04/30 09:07:24;;;;;;;;;;;;;;;35.66;48.87;100395.81;5126367;27;70032;-41
2023/04/30 09:09:54;;;;;;;;;;;;;;;35.68;48.90;100417.38;5116311;27;66182;-40
2023/04/30 09:12:24;;;;;;;;;;;;;;;35.66;48.27;100420.38;5127557;27;70723;-40
2023/04/30 09:14:58;;;;;;;;;;;;;;;35.63;48.91;100418.16;5124069;27;66357;-39
2023/04/30 09:17:31;;;;;;;;;;;;;;;35.63;48.78;100422.78;5127033;27;69753;-40
2023/04/30 09:20:08;;;;;;;;;;;;;;;35.62;48.87;100440.25;5105974;27;66239;-39
2023/04/30 09:22:39;;;;;;;;;;;;;;;35.61;48.84;100439.44;5121729;27;70304;-40
2023/04/30 09:25:10;;;;;;;;;;;;;;;35.59;48.84;100452.53;5117678;27;66503;-40
2023/04/30 09:27:40;;;;;;;;;;;;;;;35.58;48.43;100450.88;5123993;27;69830;-40
2023/04/30 09:30:29;;;;;;;;;;;;;;;35.55;48.34;100452.19;5125173;27;65725;-40
2023/04/30 09:32:59;;;;;;;;;;;;;;;35.53;49.00;100448.91;5114797;27;69836;-40
2023/04/30 09:35:30;;;;;;;;;;;;;;;35.52;48.99;100457.34;5124858;27;66624;-42
2023/04/30 09:38:01;;;;;;;;;;;;;;;35.49;48.45;100472.31;5123537;27;70092;-41
2023/04/30 09:40:32;;;;;;;;;;;;;;;35.47;48.56;100487.34;5114467;27;65981;-38
2023/04/30 09:43:02;;;;;;;;;;;;;;;35.44;48.95;100480.50;5120948;27;69467;-40
2023/04/30 09:45:43;;;;;;;;;;;;;;;35.44;49.08;100482.38;5115644;27;65520;-40
2023/04/30 09:48:17;;;;;;;;;;;;;;;35.41;48.93;100481.00;5114326;27;70060;-42
2023/04/30 09:50:47;;;;;;;;;;;;;;;35.40;49.11;100482.06;5127889;27;65554;-41
2023/04/30 09:53:19;;;;;;;;;;;;;;;35.37;49.40;100479.88;5126568;27;69946;-42
2023/04/30 09:55:50;;;;;;;;;;;;;;;35.35;49.35;100477.44;5128573;27;65762;-39
2023/04/30 09:58:22;;;;;;;;;;;;;;;35.34;48.91;100478.50;5111574;27;69676;-40
2023/04/30 10:00:53;;;;;;;;;;;;;;;35.31;49.60;100478.19;5113448;27;66475;-41
2023/04/30 10:03:24;;;;;;;;;;;;;;;35.28;49.52;100484.19;5124099;27;69515;-42
2023/04/30 10:05:55;;;;;;;;;;;;;;;35.29;49.61;100502.16;5116571;27;65566;-39
2023/04/30 10:08:30;;;;;;;;;;;;;;;35.27;49.81;100523.41;5116543;27;70624;-40
2023/04/30 10:11:04;;;;;;;;;;;;;;;35.23;49.40;100530.47;5111590;27;66426;-40
2023/04/30 10:13:55;;;;;;;;;;;;;;;35.23;49.29;100530.47;5116825;27;70100;-39
2023/04/30 10:16:34;;;;;;;;;;;;;;;35.22;49.93;100531.56;5103706;27;66900;-40
2023/04/30 10:19:23;;;;;;;;;;;;;;;35.20;49.45;100540.00;5120135;27;70759;-42
2023/04/30 10:21:53;;;;;;;;;;;;;;;35.19;50.15;100548.41;5101972;27;66548;-40
2023/04/30 10:24:24;;;;;;;;;;;;;;;35.16;50.21;100552.50;5118239;27;70056;-39
2023/04/30 10:26:56;;;;;;;;;;;;;;;35.13;49.81;100548.41;5117158;27;65695;-40
2023/04/30 10:29:26;;;;;;;;;;;;;;;35.13;50.21;100559.28;5112697;27;70027;-39
2023/04/30 10:31:57;;;;;;;;;;;;;;;35.08;50.14;100561.97;5131576;27;66598;-42
2023/04/30 10:34:27;;;;;;;;;;;;;;;35.08;50.06;100569.31;5132506;27;69764;-41
2023/04/30 10:37:00;;;;;;;;;;;;;;;35.05;50.30;100572.50;5132364;27;66583;-42
2023/04/30 10:39:32;;;;;;;;;;;;;;;35.02;51.04;100584.78;5120419;27;71052;-41
2023/04/30 10:42:03;;;;;;;;;;;;;;;34.96;52.84;100585.78;5124277;27;66552;-40
2023/04/30 10:44:35;;;;;;;;;;;;;;;34.95;52.79;100595.03;5124763;27;70645;-39
2023/04/30 10:47:06;;;;;;;;;;;;;;;34.93;52.92;100587.09;5129074;27;66864;-41
2023/04/30 10:49:37;;;;;;;;;;;;;;;34.89;53.39;100590.63;5128095;27;70130;-39
2023/04/30 10:52:10;;;;;;;;;;;;;;;34.85;53.47;100589.47;5097576;27;65599;-46
2023/04/30 10:54:48;;;;;;;;;;;;;;;34.85;53.24;100586.72;5125496;27;69492;-39
2023/04/30 10:57:20;;;;;;;;;;;;;;;34.82;53.85;100589.97;5128337;27;66786;-40
2023/04/30 10:59:50;;;;;;;;;;;;;;;34.80;53.95;100581.22;5127988;27;70325;-41
2023/04/30 11:02:21;;;;;;;;;;;;;;;34.76;53.64;100575.47;5129292;27;66830;-40
2023/04/30 11:05:12;;;;;;;;;;;;;;;34.76;54.05;100563.75;5126817;27;70737;-39
2023/04/30 11:07:49;;;;;;;;;;;;;;;34.73;54.56;100570.53;5133410;27;66191;-40
2023/04/30 11:10:24;;;;;;;;;;;;;;;34.71;54.38;100559.06;5131614;27;70181;-40
2023/04/30 11:12:55;;;;;;;;;;;;;;;34.69;54.60;100570.22;5134493;27;67079;-39
2023/04/30 11:15:33;;;;;;;;;;;;;;;34.69;54.38;100581.13;5129483;27;69929;-41
2023/04/30 11:18:03;;;;;;;;;;;;;;;34.68;54.48;100579.44;5133459;27;65430;-39
2023/04/30 11:20:38;;;;;;;;;;;;;;;34.68;54.05;100603.97;5118981;27;68212;-41
2023/04/30 11:23:10;;;;;;;;;;;;;;;34.66;54.38;100611.59;5132966;27;65403;-39
2023/04/30 11:25:41;;;;;;;;;;;;;;;34.63;54.75;100612.09;5135567;27;67375;-41
2023/04/30 11:28:15;;;;;;;;;;;;;;;34.61;54.54;100607.97;5126684;27;66634;-40
2023/04/30 11:30:54;;;;;;;;;;;;;;;34.63;54.29;100617.53;5126464;27;69775;-41
2023/04/30 11:33:26;;;;;;;;;;;;;;;34.64;53.84;100616.47;5128287;27;66152;-39
2023/04/30 11:35:58;;;;;;;;;;;;;;;34.64;53.31;100611.00;5133030;27;69990;-41
2023/04/30 11:38:29;;;;;;;;;;;;;;;34.62;54.53;100602.25;5114309;27;65735;-38
2023/04/30 11:41:00;;;;;;;;;;;;;;;34.59;54.58;100604.69;5139262;27;69748;-39
2023/04/30 11:43:31;;;;;;;;;;;;;;;34.61;54.21;100606.06;5135264;27;66179;-40
2023/04/30 11:46:01;;;;;;;;;;;;;;;34.60;54.95;100612.59;5129168;27;69915;-39
2023/04/30 11:48:36;;;;;;;;;;;;;;;34.57;54.83;100618.53;5129120;27;67086;-41
2023/04/30 11:51:15;;;;;;;;;;;;;;;34.60;54.53;100625.38;5121982;27;69843;-41
2023/04/30 11:53:50;;;;;;;;;;;;;;;34.60;54.38;100626.22;5119257;27;66128;-40
2023/04/30 11:56:23;;;;;;;;;;;;;;;34.60;54.02;100637.13;5114346;27;70420;-39
2023/04/30 11:58:54;;;;;;;;;;;;;;;34.59;54.59;100648.25;5106147;27;65401;-42
2023/04/30 12:01:28;;;;;;;;;;;;;;;34.57;54.33;100651.22;5124339;27;69382;-39
2023/04/30 12:03:58;;;;;;;;;;;;;;;34.54;54.35;100665.31;5127005;27;66016;-41
2023/04/30 12:06:29;;;;;;;;;;;;;;;34.53;54.60;100674.56;5112642;27;70523;-41
2023/04/30 12:09:03;;;;;;;;;;;;;;;34.51;54.25;100679.44;5123400;27;66550;-40
2023/04/30 12:11:34;;;;;;;;;;;;;;;34.48;54.03;100682.66;5101245;27;70741;-40
2023/04/30 12:14:06;;;;;;;;;;;;;;;34.47;54.57;100698.19;5100460;27;66772;-41
2023/04/30 12:16:41;;;;;;;;;;;;;;;34.45;54.32;100715.84;5122056;27;69894;-41
2023/04/30 12:19:12;;;;;;;;;;;;;;;34.44;54.41;100725.91;5109938;27;66589;-41
2023/04/30 12:21:45;;;;;;;;;;;;;;;34.42;54.80;100724.50;5115143;27;69179;-42
2023/04/30 12:24:16;;;;;;;;;;;;;;;34.41;54.38;100736.50;5123615;27;67059;-40
2023/04/30 12:26:48;;;;;;;;;;;;;;;34.40;54.63;100735.63;5103548;27;70536;-40
2023/04/30 12:29:18;;;;;;;;;;;;;;;34.39;54.73;100735.91;5103789;27;66926;-40
2023/04/30 12:31:49;;;;;;;;;;;;;;;34.36;54.66;100736.41;5101055;27;69776;-40
2023/04/30 12:34:20;;;;;;;;;;;;;;;34.36;54.49;100741.84;5127478;27;65685;-39
2023/04/30 12:36:50;;;;;;;;;;;;;;;34.33;54.97;100743.16;5125249;27;68581;-40
2023/04/30 12:39:20;;;;;;;;;;;;;;;34.31;54.65;100758.91;5103839;27;67077;-41
2023/04/30 12:41:51;;;;;;;;;;;;;;;34.31;54.49;100769.00;5126237;27;70601;-39
2023/04/30 12:44:26;;;;;;;;;;;;;;;34.31;54.95;100777.16;5119758;27;67041;-39
2023/04/30 12:46:59;;;;;;;;;;;;;;;34.29;55.07;100782.84;5127571;27;70369;-39
2023/04/30 12:49:32;;;;;;;;;;;;;;;34.28;55.08;100791.25;5120131;27;67003;-41
2023/04/30 12:52:06;;;;;;;;;;;;;;;34.26;55.14;100784.16;5123250;27;69760;-40
2023/04/30 12:54:37;;;;;;;;;;;;;;;34.25;55.03;100798.03;5123483;27;66296;-41
2023/04/30 12:57:08;;;;;;;;;;;;;;;34.24;54.94;100799.94;5121775;27;69947;-41
2023/04/30 12:59:55;;;;;;;;;;;;;;;34.22;55.12;100802.06;5119206;27;67480;-44